sensor_id;sensor_type;location;lat;lon;timestamp;pressure;altitude;pressure_sealevel;temperature;humidity
79366;BME280;68833;53.160;17.920;2023-12-07T00:01:03;101125.44;;;-1.49;77.90
79366;BME280;68833;53.160;17.920;2023-12-07T00:03:32;101129.39;;;-1.64;78.00
79366;BME280;68833;53.160;17.920;2023-12-07T00:05:58;101134.89;;;-1.79;78.21
79366;BME280;68833;53.160;17.920;2023-12-07T00:08:24;101132.54;;;-1.89;78.38
79366;BME280;68833;53.160;17.920;2023-12-07T00:10:51;101130.83;;;-1.99;78.50
79366;BME280;68833;53.160;17.920;2023-12-07T00:13:18;101130.49;;;-2.06;78.78
79366;BME280;68833;53.160;17.920;2023-12-07T00:15:45;101135.73;;;-2.08;78.64
79366;BME280;68833;53.160;17.920;2023-12-07T00:18:11;101135.73;;;-2.08;79.08
79366;BME280;68833;53.160;17.920;2023-12-07T00:20:39;101136.03;;;-2.09;78.81
79366;BME280;68833;53.160;17.920;2023-12-07T00:23:05;101135.18;;;-2.09;78.73
79366;BME280;68833;53.160;17.920;2023-12-07T00:25:31;101139.77;;;-2.10;78.66
79366;BME280;68833;53.160;17.920;2023-12-07T00:27:58;101139.40;;;-2.13;79.11
79366;BME280;68833;53.160;17.920;2023-12-07T00:30:25;101144.80;;;-2.16;78.93
79366;BME280;68833;53.160;17.920;2023-12-07T00:32:52;101143.02;;;-2.17;79.00
79366;BME280;68833;53.160;17.920;2023-12-07T00:35:18;101141.77;;;-2.18;79.17
79366;BME280;68833;53.160;17.920;2023-12-07T00:37:48;101144.97;;;-2.20;79.07
79366;BME280;68833;53.160;17.920;2023-12-07T00:40:15;101146.66;;;-2.20;79.10
79366;BME280;68833;53.160;17.920;2023-12-07T00:42:43;101149.25;;;-2.20;78.82
79366;BME280;68833;53.160;17.920;2023-12-07T00:45:12;101149.51;;;-2.18;79.01
79366;BME280;68833;53.160;17.920;2023-12-07T00:47:39;101149.99;;;-2.18;78.96
79366;BME280;68833;53.160;17.920;2023-12-07T00:50:06;101148.08;;;-2.19;79.00
79366;BME280;68833;53.160;17.920;2023-12-07T00:52:33;101151.01;;;-2.19;79.26
79366;BME280;68833;53.160;17.920;2023-12-07T00:54:59;101152.92;;;-2.18;79.20
79366;BME280;68833;53.160;17.920;2023-12-07T00:57:26;101154.96;;;-2.19;79.13
79366;BME280;68833;53.160;17.920;2023-12-07T00:59:52;101153.70;;;-2.20;79.46
79366;BME280;68833;53.160;17.920;2023-12-07T01:02:18;101158.09;;;-2.23;79.28
79366;BME280;68833;53.160;17.920;2023-12-07T01:04:45;101157.77;;;-2.25;79.32
79366;BME280;68833;53.160;17.920;2023-12-07T01:07:12;101165.20;;;-2.25;79.18
79366;BME280;68833;53.160;17.920;2023-12-07T01:09:40;101165.31;;;-2.22;79.12
79366;BME280;68833;53.160;17.920;2023-12-07T01:12:07;101166.30;;;-2.20;79.19
79366;BME280;68833;53.160;17.920;2023-12-07T01:14:34;101166.09;;;-2.20;79.28
79366;BME280;68833;53.160;17.920;2023-12-07T01:17:00;101166.66;;;-2.19;79.16
79366;BME280;68833;53.160;17.920;2023-12-07T01:19:28;101165.44;;;-2.19;79.17
79366;BME280;68833;53.160;17.920;2023-12-07T01:21:55;101171.48;;;-2.19;79.47
79366;BME280;68833;53.160;17.920;2023-12-07T01:24:21;101173.83;;;-2.20;79.26
79366;BME280;68833;53.160;17.920;2023-12-07T01:26:48;101174.54;;;-2.23;79.53
79366;BME280;68833;53.160;17.920;2023-12-07T01:29:16;101174.48;;;-2.25;79.30
79366;BME280;68833;53.160;17.920;2023-12-07T01:31:44;101172.23;;;-2.25;79.36
79366;BME280;68833;53.160;17.920;2023-12-07T01:34:10;101175.77;;;-2.23;79.48
79366;BME280;68833;53.160;17.920;2023-12-07T01:36:38;101173.80;;;-2.22;79.36
79366;BME280;68833;53.160;17.920;2023-12-07T01:39:05;101174.58;;;-2.19;79.19
79366;BME280;68833;53.160;17.920;2023-12-07T01:41:33;101173.13;;;-2.17;79.60
79366;BME280;68833;53.160;17.920;2023-12-07T01:44:00;101171.27;;;-2.17;79.27
79366;BME280;68833;53.160;17.920;2023-12-07T01:46:30;101171.15;;;-2.18;79.36
79366;BME280;68833;53.160;17.920;2023-12-07T01:48:57;101171.46;;;-2.19;79.33
79366;BME280;68833;53.160;17.920;2023-12-07T01:51:26;101173.28;;;-2.21;79.33
79366;BME280;68833;53.160;17.920;2023-12-07T01:53:53;101175.08;;;-2.23;79.46
79366;BME280;68833;53.160;17.920;2023-12-07T01:56:21;101178.38;;;-2.23;79.59
79366;BME280;68833;53.160;17.920;2023-12-07T01:58:50;101174.88;;;-2.20;79.42
79366;BME280;68833;53.160;17.920;2023-12-07T02:01:17;101173.51;;;-2.20;79.25
79366;BME280;68833;53.160;17.920;2023-12-07T02:03:47;101175.97;;;-2.19;79.63
79366;BME280;68833;53.160;17.920;2023-12-07T02:06:16;101177.32;;;-2.16;79.31
79366;BME280;68833;53.160;17.920;2023-12-07T02:08:43;101176.30;;;-2.15;79.42
79366;BME280;68833;53.160;17.920;2023-12-07T02:11:10;101178.95;;;-2.14;79.70
79366;BME280;68833;53.160;17.920;2023-12-07T02:13:38;101174.66;;;-2.17;79.53
79366;BME280;68833;53.160;17.920;2023-12-07T02:16:13;101172.98;;;-2.20;79.44
79366;BME280;68833;53.160;17.920;2023-12-07T02:18:46;101169.49;;;-2.21;79.54
79366;BME280;68833;53.160;17.920;2023-12-07T02:21:40;101165.52;;;-2.22;79.69
79366;BME280;68833;53.160;17.920;2023-12-07T02:24:08;101168.36;;;-2.20;79.62
79366;BME280;68833;53.160;17.920;2023-12-07T02:26:38;101174.19;;;-2.16;79.50
79366;BME280;68833;53.160;17.920;2023-12-07T02:29:04;101177.55;;;-2.14;79.56
79366;BME280;68833;53.160;17.920;2023-12-07T02:31:31;101180.05;;;-2.13;79.61
79366;BME280;68833;53.160;17.920;2023-12-07T02:33:58;101185.25;;;-2.12;79.57
79366;BME280;68833;53.160;17.920;2023-12-07T02:36:27;101184.06;;;-2.12;79.67
79366;BME280;68833;53.160;17.920;2023-12-07T02:38:58;101186.67;;;-2.11;79.39
79366;BME280;68833;53.160;17.920;2023-12-07T02:41:44;101184.70;;;-2.13;79.41
79366;BME280;68833;53.160;17.920;2023-12-07T02:44:12;101183.09;;;-2.14;79.58
79366;BME280;68833;53.160;17.920;2023-12-07T02:46:39;101183.65;;;-2.13;79.57
79366;BME280;68833;53.160;17.920;2023-12-07T02:49:06;101184.23;;;-2.12;79.42
79366;BME280;68833;53.160;17.920;2023-12-07T02:51:32;101185.77;;;-2.12;79.38
79366;BME280;68833;53.160;17.920;2023-12-07T02:53:59;101190.79;;;-2.12;79.35
79366;BME280;68833;53.160;17.920;2023-12-07T02:56:26;101194.45;;;-2.11;79.56
79366;BME280;68833;53.160;17.920;2023-12-07T02:58:53;101195.16;;;-2.10;79.77
79366;BME280;68833;53.160;17.920;2023-12-07T03:01:19;101191.81;;;-2.09;79.91
79366;BME280;68833;53.160;17.920;2023-12-07T03:03:47;101191.20;;;-2.07;79.93
79366;BME280;68833;53.160;17.920;2023-12-07T03:06:14;101192.34;;;-2.05;79.45
79366;BME280;68833;53.160;17.920;2023-12-07T03:08:42;101190.89;;;-2.03;79.54
79366;BME280;68833;53.160;17.920;2023-12-07T03:11:08;101195.13;;;-2.00;79.54
79366;BME280;68833;53.160;17.920;2023-12-07T03:13:34;101197.23;;;-2.00;79.52
79366;BME280;68833;53.160;17.920;2023-12-07T03:16:01;101193.61;;;-2.00;79.61
79366;BME280;68833;53.160;17.920;2023-12-07T03:18:27;101190.80;;;-2.01;79.52
79366;BME280;68833;53.160;17.920;2023-12-07T03:20:55;101186.58;;;-2.03;79.30
79366;BME280;68833;53.160;17.920;2023-12-07T03:23:21;101184.88;;;-2.06;79.44
79366;BME280;68833;53.160;17.920;2023-12-07T03:25:47;101186.25;;;-2.10;79.49
79366;BME280;68833;53.160;17.920;2023-12-07T03:28:14;101183.70;;;-2.12;79.73
79366;BME280;68833;53.160;17.920;2023-12-07T03:30:41;101188.63;;;-2.13;79.79
79366;BME280;68833;53.160;17.920;2023-12-07T03:33:10;101183.48;;;-2.13;79.61
79366;BME280;68833;53.160;17.920;2023-12-07T03:35:44;101181.94;;;-2.13;79.49
79366;BME280;68833;53.160;17.920;2023-12-07T03:38:11;101178.38;;;-2.12;79.68
79366;BME280;68833;53.160;17.920;2023-12-07T03:40:37;101180.79;;;-2.12;79.70
79366;BME280;68833;53.160;17.920;2023-12-07T03:43:04;101185.20;;;-2.13;79.36
79366;BME280;68833;53.160;17.920;2023-12-07T03:45:31;101192.40;;;-2.14;79.73
79366;BME280;68833;53.160;17.920;2023-12-07T03:47:59;101191.95;;;-2.16;79.56
79366;BME280;68833;53.160;17.920;2023-12-07T03:50:26;101195.31;;;-2.17;79.78
79366;BME280;68833;53.160;17.920;2023-12-07T03:52:52;101203.35;;;-2.18;79.70
79366;BME280;68833;53.160;17.920;2023-12-07T03:55:18;101198.86;;;-2.18;79.77
79366;BME280;68833;53.160;17.920;2023-12-07T03:57:46;101202.45;;;-2.16;79.51
79366;BME280;68833;53.160;17.920;2023-12-07T04:00:12;101205.14;;;-2.14;79.75
79366;BME280;68833;53.160;17.920;2023-12-07T04:02:41;101207.16;;;-2.11;79.58
79366;BME280;68833;53.160;17.920;2023-12-07T04:05:08;101210.84;;;-2.10;79.39
79366;BME280;68833;53.160;17.920;2023-12-07T04:07:35;101210.85;;;-2.10;79.62
79366;BME280;68833;53.160;17.920;2023-12-07T04:10:02;101207.19;;;-2.11;79.40
79366;BME280;68833;53.160;17.920;2023-12-07T04:12:32;101208.33;;;-2.12;79.62
79366;BME280;68833;53.160;17.920;2023-12-07T04:14:58;101210.98;;;-2.14;79.43
79366;BME280;68833;53.160;17.920;2023-12-07T04:17:26;101216.27;;;-2.15;79.56
79366;BME280;68833;53.160;17.920;2023-12-07T04:19:52;101219.19;;;-2.15;79.33
79366;BME280;68833;53.160;17.920;2023-12-07T04:22:21;101220.82;;;-2.13;79.43
79366;BME280;68833;53.160;17.920;2023-12-07T04:24:48;101224.48;;;-2.12;79.39
79366;BME280;68833;53.160;17.920;2023-12-07T04:27:16;101230.25;;;-2.11;79.52
79366;BME280;68833;53.160;17.920;2023-12-07T04:29:43;101231.64;;;-2.10;79.42
79366;BME280;68833;53.160;17.920;2023-12-07T04:32:12;101234.86;;;-2.11;79.40
79366;BME280;68833;53.160;17.920;2023-12-07T04:34:38;101238.39;;;-2.12;79.42
79366;BME280;68833;53.160;17.920;2023-12-07T04:37:05;101236.92;;;-2.15;79.43
79366;BME280;68833;53.160;17.920;2023-12-07T04:39:32;101231.92;;;-2.15;79.48
79366;BME280;68833;53.160;17.920;2023-12-07T04:41:59;101229.75;;;-2.14;79.51
79366;BME280;68833;53.160;17.920;2023-12-07T04:44:27;101229.91;;;-2.14;79.45
79366;BME280;68833;53.160;17.920;2023-12-07T04:46:55;101231.19;;;-2.13;79.34
79366;BME280;68833;53.160;17.920;2023-12-07T04:49:23;101231.60;;;-2.14;79.59
79366;BME280;68833;53.160;17.920;2023-12-07T04:51:50;101232.39;;;-2.16;79.64
79366;BME280;68833;53.160;17.920;2023-12-07T04:54:19;101235.05;;;-2.17;79.49
79366;BME280;68833;53.160;17.920;2023-12-07T04:56:46;101232.39;;;-2.19;79.38
79366;BME280;68833;53.160;17.920;2023-12-07T04:59:14;101229.35;;;-2.22;79.54
79366;BME280;68833;53.160;17.920;2023-12-07T05:01:41;101228.11;;;-2.22;79.40
79366;BME280;68833;53.160;17.920;2023-12-07T05:04:09;101231.95;;;-2.22;79.56
79366;BME280;68833;53.160;17.920;2023-12-07T05:06:36;101235.23;;;-2.21;79.47
79366;BME280;68833;53.160;17.920;2023-12-07T05:09:04;101234.36;;;-2.21;79.61
79366;BME280;68833;53.160;17.920;2023-12-07T05:11:32;101240.28;;;-2.20;79.63
79366;BME280;68833;53.160;17.920;2023-12-07T05:14:01;101244.61;;;-2.19;79.73
79366;BME280;68833;53.160;17.920;2023-12-07T05:16:29;101247.05;;;-2.18;79.54
79366;BME280;68833;53.160;17.920;2023-12-07T05:18:57;101250.98;;;-2.19;79.32
79366;BME280;68833;53.160;17.920;2023-12-07T05:21:25;101251.22;;;-2.17;79.40
79366;BME280;68833;53.160;17.920;2023-12-07T05:23:51;101247.48;;;-2.16;79.25
79366;BME280;68833;53.160;17.920;2023-12-07T05:26:19;101248.09;;;-2.15;79.51
79366;BME280;68833;53.160;17.920;2023-12-07T05:28:48;101249.29;;;-2.15;79.44
79366;BME280;68833;53.160;17.920;2023-12-07T05:31:17;101250.73;;;-2.14;79.66
79366;BME280;68833;53.160;17.920;2023-12-07T05:33:44;101257.01;;;-2.12;79.51
79366;BME280;68833;53.160;17.920;2023-12-07T05:36:11;101254.43;;;-2.12;79.46
79366;BME280;68833;53.160;17.920;2023-12-07T05:38:39;101249.73;;;-2.13;79.69
79366;BME280;68833;53.160;17.920;2023-12-07T05:41:06;101244.52;;;-2.18;79.40
79366;BME280;68833;53.160;17.920;2023-12-07T05:43:35;101248.20;;;-2.16;79.40
79366;BME280;68833;53.160;17.920;2023-12-07T05:46:04;101254.07;;;-2.16;79.55
79366;BME280;68833;53.160;17.920;2023-12-07T05:48:34;101251.84;;;-2.16;79.82
79366;BME280;68833;53.160;17.920;2023-12-07T05:51:03;101252.46;;;-2.14;79.62
79366;BME280;68833;53.160;17.920;2023-12-07T05:53:32;101257.34;;;-2.12;79.78
79366;BME280;68833;53.160;17.920;2023-12-07T05:56:02;101255.70;;;-2.11;79.46
79366;BME280;68833;53.160;17.920;2023-12-07T05:58:32;101263.77;;;-2.11;79.59
79366;BME280;68833;53.160;17.920;2023-12-07T06:01:01;101261.46;;;-2.13;79.21
79366;BME280;68833;53.160;17.920;2023-12-07T06:03:32;101261.52;;;-2.12;79.40
79366;BME280;68833;53.160;17.920;2023-12-07T06:06:02;101261.51;;;-2.08;79.59
79366;BME280;68833;53.160;17.920;2023-12-07T06:08:32;101264.06;;;-2.06;79.68
79366;BME280;68833;53.160;17.920;2023-12-07T06:11:03;101266.34;;;-2.05;79.56
79366;BME280;68833;53.160;17.920;2023-12-07T06:13:38;101272.18;;;-2.05;79.63
79366;BME280;68833;53.160;17.920;2023-12-07T06:16:12;101278.36;;;-2.05;79.32
79366;BME280;68833;53.160;17.920;2023-12-07T06:18:41;101281.27;;;-2.06;79.83
79366;BME280;68833;53.160;17.920;2023-12-07T06:21:10;101289.81;;;-2.07;79.74
79366;BME280;68833;53.160;17.920;2023-12-07T06:23:40;101296.94;;;-2.06;79.69
79366;BME280;68833;53.160;17.920;2023-12-07T06:26:10;101297.63;;;-2.02;79.81
79366;BME280;68833;53.160;17.920;2023-12-07T06:28:40;101297.52;;;-2.01;79.61
79366;BME280;68833;53.160;17.920;2023-12-07T06:31:11;101299.52;;;-1.99;79.36
79366;BME280;68833;53.160;17.920;2023-12-07T06:33:40;101302.14;;;-1.98;79.68
79366;BME280;68833;53.160;17.920;2023-12-07T06:36:11;101299.71;;;-1.99;79.71
79366;BME280;68833;53.160;17.920;2023-12-07T06:38:40;101305.81;;;-2.00;79.88
79366;BME280;68833;53.160;17.920;2023-12-07T06:48:54;101309.95;;;-1.94;79.68
79366;BME280;68833;53.160;17.920;2023-12-07T06:51:20;101310.59;;;-1.91;79.62
79366;BME280;68833;53.160;17.920;2023-12-07T06:53:47;101310.77;;;-1.91;79.47
79366;BME280;68833;53.160;17.920;2023-12-07T06:56:13;101315.11;;;-1.91;79.34
79366;BME280;68833;53.160;17.920;2023-12-07T06:58:41;101315.25;;;-1.91;79.81
79366;BME280;68833;53.160;17.920;2023-12-07T07:01:07;101314.08;;;-1.94;79.74
79366;BME280;68833;53.160;17.920;2023-12-07T07:03:33;101313.95;;;-1.96;79.72
79366;BME280;68833;53.160;17.920;2023-12-07T07:06:01;101315.92;;;-1.98;79.95
79366;BME280;68833;53.160;17.920;2023-12-07T07:08:27;101316.63;;;-1.98;79.84
79366;BME280;68833;53.160;17.920;2023-12-07T07:10:55;101314.57;;;-1.97;80.16
79366;BME280;68833;53.160;17.920;2023-12-07T07:13:22;101314.97;;;-1.96;80.25
79366;BME280;68833;53.160;17.920;2023-12-07T07:15:48;101315.67;;;-1.96;79.98
79366;BME280;68833;53.160;17.920;2023-12-07T07:18:15;101318.96;;;-1.96;79.79
79366;BME280;68833;53.160;17.920;2023-12-07T07:20:44;101314.20;;;-1.98;80.17
79366;BME280;68833;53.160;17.920;2023-12-07T07:23:11;101318.70;;;-1.97;80.24
79366;BME280;68833;53.160;17.920;2023-12-07T07:25:38;101317.71;;;-1.97;80.28
79366;BME280;68833;53.160;17.920;2023-12-07T07:28:05;101317.43;;;-1.96;79.99
79366;BME280;68833;53.160;17.920;2023-12-07T07:30:32;101318.49;;;-1.95;79.83
79366;BME280;68833;53.160;17.920;2023-12-07T07:32:58;101316.46;;;-1.94;79.98
79366;BME280;68833;53.160;17.920;2023-12-07T07:35:28;101317.64;;;-1.95;79.90
79366;BME280;68833;53.160;17.920;2023-12-07T07:37:55;101315.77;;;-1.95;80.10
79366;BME280;68833;53.160;17.920;2023-12-07T07:40:21;101315.73;;;-1.95;80.27
79366;BME280;68833;53.160;17.920;2023-12-07T07:42:50;101318.92;;;-1.96;80.19
79366;BME280;68833;53.160;17.920;2023-12-07T07:45:16;101322.24;;;-1.96;80.25
79366;BME280;68833;53.160;17.920;2023-12-07T07:47:43;101319.92;;;-1.94;80.03
79366;BME280;68833;53.160;17.920;2023-12-07T07:50:09;101327.06;;;-1.92;80.14
79366;BME280;68833;53.160;17.920;2023-12-07T07:52:36;101329.08;;;-1.90;80.14
79366;BME280;68833;53.160;17.920;2023-12-07T07:55:04;101333.45;;;-1.89;80.03
79366;BME280;68833;53.160;17.920;2023-12-07T07:57:30;101333.28;;;-1.88;80.40
79366;BME280;68833;53.160;17.920;2023-12-07T07:59:57;101330.68;;;-1.89;79.86
79366;BME280;68833;53.160;17.920;2023-12-07T08:02:24;101326.04;;;-1.89;79.94
79366;BME280;68833;53.160;17.920;2023-12-07T08:04:54;101322.31;;;-1.88;80.02
79366;BME280;68833;53.160;17.920;2023-12-07T08:07:20;101320.85;;;-1.86;80.19
79366;BME280;68833;53.160;17.920;2023-12-07T08:09:50;101322.33;;;-1.84;80.20
79366;BME280;68833;53.160;17.920;2023-12-07T08:12:19;101319.12;;;-1.82;80.07
79366;BME280;68833;53.160;17.920;2023-12-07T08:14:51;101321.95;;;-1.81;80.26
79366;BME280;68833;53.160;17.920;2023-12-07T08:17:18;101321.98;;;-1.80;80.11
79366;BME280;68833;53.160;17.920;2023-12-07T08:19:45;101322.73;;;-1.79;80.31
79366;BME280;68833;53.160;17.920;2023-12-07T08:22:12;101327.06;;;-1.79;80.55
79366;BME280;68833;53.160;17.920;2023-12-07T08:24:39;101333.58;;;-1.76;80.69
79366;BME280;68833;53.160;17.920;2023-12-07T08:27:05;101332.41;;;-1.72;80.59
79366;BME280;68833;53.160;17.920;2023-12-07T08:29:32;101331.71;;;-1.69;80.71
79366;BME280;68833;53.160;17.920;2023-12-07T08:31:58;101334.02;;;-1.64;80.37
79366;BME280;68833;53.160;17.920;2023-12-07T08:34:25;101332.27;;;-1.61;80.26
79366;BME280;68833;53.160;17.920;2023-12-07T08:36:51;101335.80;;;-1.59;80.50
79366;BME280;68833;53.160;17.920;2023-12-07T08:39:20;101338.27;;;-1.58;80.59
79366;BME280;68833;53.160;17.920;2023-12-07T08:41:47;101336.23;;;-1.58;80.81
79366;BME280;68833;53.160;17.920;2023-12-07T08:44:13;101334.71;;;-1.57;80.47
79366;BME280;68833;53.160;17.920;2023-12-07T08:46:40;101342.60;;;-1.54;80.82
79366;BME280;68833;53.160;17.920;2023-12-07T08:49:07;101342.03;;;-1.52;80.51
79366;BME280;68833;53.160;17.920;2023-12-07T08:51:34;101345.05;;;-1.50;80.50
79366;BME280;68833;53.160;17.920;2023-12-07T08:54:02;101345.13;;;-1.48;80.61
79366;BME280;68833;53.160;17.920;2023-12-07T08:56:28;101346.91;;;-1.47;80.86
79366;BME280;68833;53.160;17.920;2023-12-07T08:58:54;101349.15;;;-1.47;80.39
79366;BME280;68833;53.160;17.920;2023-12-07T09:01:23;101349.32;;;-1.47;80.62
79366;BME280;68833;53.160;17.920;2023-12-07T09:03:50;101352.33;;;-1.46;80.27
79366;BME280;68833;53.160;17.920;2023-12-07T09:06:18;101357.09;;;-1.44;80.72
79366;BME280;68833;53.160;17.920;2023-12-07T09:08:45;101362.39;;;-1.41;80.71
79366;BME280;68833;53.160;17.920;2023-12-07T09:11:11;101366.77;;;-1.40;80.75
79366;BME280;68833;53.160;17.920;2023-12-07T09:13:38;101366.19;;;-1.37;81.16
79366;BME280;68833;53.160;17.920;2023-12-07T09:16:07;101363.38;;;-1.35;81.05
79366;BME280;68833;53.160;17.920;2023-12-07T09:18:34;101365.14;;;-1.34;81.13
79366;BME280;68833;53.160;17.920;2023-12-07T09:21:02;101359.77;;;-1.34;80.62
79366;BME280;68833;53.160;17.920;2023-12-07T09:23:31;101360.38;;;-1.33;80.82
79366;BME280;68833;53.160;17.920;2023-12-07T09:25:58;101358.41;;;-1.30;80.30
79366;BME280;68833;53.160;17.920;2023-12-07T09:28:24;101359.36;;;-1.29;80.54
79366;BME280;68833;53.160;17.920;2023-12-07T09:30:54;101362.97;;;-1.26;80.57
79366;BME280;68833;53.160;17.920;2023-12-07T09:33:21;101359.13;;;-1.24;80.30
79366;BME280;68833;53.160;17.920;2023-12-07T09:35:48;101356.88;;;-1.20;80.78
79366;BME280;68833;53.160;17.920;2023-12-07T09:38:17;101358.02;;;-1.18;80.35
79366;BME280;68833;53.160;17.920;2023-12-07T09:40:45;101351.96;;;-1.18;80.23
79366;BME280;68833;53.160;17.920;2023-12-07T09:43:12;101347.79;;;-1.15;80.70
79366;BME280;68833;53.160;17.920;2023-12-07T09:45:39;101347.42;;;-1.12;80.52
79366;BME280;68833;53.160;17.920;2023-12-07T09:48:07;101346.79;;;-1.11;80.10
79366;BME280;68833;53.160;17.920;2023-12-07T09:50:34;101343.63;;;-1.09;80.78
79366;BME280;68833;53.160;17.920;2023-12-07T09:53:02;101349.44;;;-1.06;80.65
79366;BME280;68833;53.160;17.920;2023-12-07T09:55:28;101349.40;;;-1.04;80.68
79366;BME280;68833;53.160;17.920;2023-12-07T09:58:06;101353.31;;;-1.01;80.97
79366;BME280;68833;53.160;17.920;2023-12-07T10:00:32;101351.67;;;-0.99;80.96
79366;BME280;68833;53.160;17.920;2023-12-07T10:02:59;101352.38;;;-0.95;80.83
79366;BME280;68833;53.160;17.920;2023-12-07T10:05:34;101354.13;;;-0.92;80.24
79366;BME280;68833;53.160;17.920;2023-12-07T10:08:00;101350.27;;;-0.89;80.18
79366;BME280;68833;53.160;17.920;2023-12-07T10:10:27;101348.75;;;-0.89;80.78
79366;BME280;68833;53.160;17.920;2023-12-07T10:12:55;101349.31;;;-0.88;80.86
79366;BME280;68833;53.160;17.920;2023-12-07T10:15:27;101345.39;;;-0.87;80.61
79366;BME280;68833;53.160;17.920;2023-12-07T10:17:56;101347.15;;;-0.86;80.10
79366;BME280;68833;53.160;17.920;2023-12-07T10:20:27;101349.77;;;-0.85;80.41
79366;BME280;68833;53.160;17.920;2023-12-07T10:23:08;101346.33;;;-0.81;80.74
79366;BME280;68833;53.160;17.920;2023-12-07T10:25:39;101343.08;;;-0.77;81.14
79366;BME280;68833;53.160;17.920;2023-12-07T10:28:07;101338.19;;;-0.75;80.61
79366;BME280;68833;53.160;17.920;2023-12-07T10:30:34;101334.95;;;-0.70;80.73
79366;BME280;68833;53.160;17.920;2023-12-07T10:33:04;101335.23;;;-0.68;80.90
79366;BME280;68833;53.160;17.920;2023-12-07T10:35:31;101336.91;;;-0.65;80.63
79366;BME280;68833;53.160;17.920;2023-12-07T10:37:57;101337.84;;;-0.67;80.81
79366;BME280;68833;53.160;17.920;2023-12-07T10:40:24;101333.35;;;-0.67;81.01
79366;BME280;68833;53.160;17.920;2023-12-07T10:42:56;101336.92;;;-0.65;80.97
79366;BME280;68833;53.160;17.920;2023-12-07T10:45:31;101336.52;;;-0.62;80.61
79366;BME280;68833;53.160;17.920;2023-12-07T10:48:06;101338.49;;;-0.61;80.65
79366;BME280;68833;53.160;17.920;2023-12-07T10:50:53;101341.22;;;-0.58;80.90
79366;BME280;68833;53.160;17.920;2023-12-07T10:53:29;101338.68;;;-0.57;80.75
79366;BME280;68833;53.160;17.920;2023-12-07T10:56:00;101334.02;;;-0.57;80.54
79366;BME280;68833;53.160;17.920;2023-12-07T10:58:27;101331.29;;;-0.56;80.61
79366;BME280;68833;53.160;17.920;2023-12-07T11:03:49;101329.38;;;-0.49;80.55
79366;BME280;68833;53.160;17.920;2023-12-07T11:06:18;101327.17;;;-0.53;81.21
79366;BME280;68833;53.160;17.920;2023-12-07T11:08:59;101326.27;;;-0.49;80.53
79366;BME280;68833;53.160;17.920;2023-12-07T11:11:49;101321.84;;;-0.48;80.79
79366;BME280;68833;53.160;17.920;2023-12-07T11:14:19;101327.05;;;-0.51;80.63
79366;BME280;68833;53.160;17.920;2023-12-07T11:16:49;101331.66;;;-0.52;81.08
79366;BME280;68833;53.160;17.920;2023-12-07T11:22:12;101326.27;;;-0.49;80.68
79366;BME280;68833;53.160;17.920;2023-12-07T11:24:57;101323.69;;;-0.49;80.54
79366;BME280;68833;53.160;17.920;2023-12-07T11:27:31;101319.65;;;-0.47;80.94
79366;BME280;68833;53.160;17.920;2023-12-07T11:30:00;101319.83;;;-0.46;80.85
79366;BME280;68833;53.160;17.920;2023-12-07T11:32:28;101322.02;;;-0.48;80.50
79366;BME280;68833;53.160;17.920;2023-12-07T11:35:04;101322.68;;;-0.48;80.83
79366;BME280;68833;53.160;17.920;2023-12-07T11:38:01;101319.47;;;-0.47;80.92
79366;BME280;68833;53.160;17.920;2023-12-07T11:40:36;101319.71;;;-0.45;81.33
79366;BME280;68833;53.160;17.920;2023-12-07T11:43:05;101315.16;;;-0.43;80.99
79366;BME280;68833;53.160;17.920;2023-12-07T11:45:47;101313.73;;;-0.40;81.12
79366;BME280;68833;53.160;17.920;2023-12-07T11:48:16;101310.70;;;-0.42;80.66
79366;BME280;68833;53.160;17.920;2023-12-07T11:51:00;101311.13;;;-0.44;80.76
79366;BME280;68833;53.160;17.920;2023-12-07T11:53:35;101306.98;;;-0.48;80.88
79366;BME280;68833;53.160;17.920;2023-12-07T11:56:04;101301.85;;;-0.51;80.77
79366;BME280;68833;53.160;17.920;2023-12-07T11:58:33;101301.80;;;-0.48;81.30
79366;BME280;68833;53.160;17.920;2023-12-07T12:01:00;101302.10;;;-0.45;81.00
79366;BME280;68833;53.160;17.920;2023-12-07T12:03:29;101301.40;;;-0.42;80.43
79366;BME280;68833;53.160;17.920;2023-12-07T12:05:58;101301.15;;;-0.40;81.13
79366;BME280;68833;53.160;17.920;2023-12-07T12:08:26;101302.66;;;-0.37;81.04
79366;BME280;68833;53.160;17.920;2023-12-07T12:10:54;101299.71;;;-0.37;80.78
79366;BME280;68833;53.160;17.920;2023-12-07T12:13:34;101300.20;;;-0.38;80.68
79366;BME280;68833;53.160;17.920;2023-12-07T12:16:02;101301.13;;;-0.40;80.94
79366;BME280;68833;53.160;17.920;2023-12-07T12:18:32;101295.35;;;-0.42;81.01
79366;BME280;68833;53.160;17.920;2023-12-07T12:20:59;101294.42;;;-0.44;80.88
79366;BME280;68833;53.160;17.920;2023-12-07T12:23:26;101292.22;;;-0.43;80.45
79366;BME280;68833;53.160;17.920;2023-12-07T12:25:56;101292.17;;;-0.40;81.18
79366;BME280;68833;53.160;17.920;2023-12-07T12:28:23;101295.86;;;-0.39;80.79
79366;BME280;68833;53.160;17.920;2023-12-07T12:30:51;101290.25;;;-0.37;81.37
79366;BME280;68833;53.160;17.920;2023-12-07T12:33:19;101290.98;;;-0.36;80.89
79366;BME280;68833;53.160;17.920;2023-12-07T12:35:46;101290.29;;;-0.36;80.76
79366;BME280;68833;53.160;17.920;2023-12-07T12:38:13;101294.36;;;-0.37;80.94
79366;BME280;68833;53.160;17.920;2023-12-07T12:40:40;101297.88;;;-0.40;80.78
79366;BME280;68833;53.160;17.920;2023-12-07T12:43:10;101294.89;;;-0.37;80.41
79366;BME280;68833;53.160;17.920;2023-12-07T12:45:37;101298.99;;;-0.34;80.54
79366;BME280;68833;53.160;17.920;2023-12-07T12:48:04;101299.49;;;-0.30;80.46
79366;BME280;68833;53.160;17.920;2023-12-07T12:50:36;101301.67;;;-0.28;80.62
79366;BME280;68833;53.160;17.920;2023-12-07T12:53:05;101296.77;;;-0.26;80.95
79366;BME280;68833;53.160;17.920;2023-12-07T12:55:35;101297.82;;;-0.22;80.65
79366;BME280;68833;53.160;17.920;2023-12-07T12:58:06;101292.79;;;-0.22;80.83
79366;BME280;68833;53.160;17.920;2023-12-07T13:00:37;101296.14;;;-0.21;80.59